Time;durP1;ratioP1;P1;durP2;ratioP2;P2;SDS_P1;SDS_P2;PMS_P1;PMS_P2;Temp;Humidity;BMP_temperature;BMP_pressure;BME280_temperature;BME280_humidity;BME280_pressure;Samples;Min_cycle;Max_cycle;Signal;HPM_P1;HPM_P2
2023/03/16 00:00:16;;;;;;;2.30;2.10;;;;;;;;;;5119639;28;20257;-62
2023/03/16 00:02:44;;;;;;;1.90;1.80;;;;;;;;;;5120353;28;20199;-62
2023/03/16 00:05:12;;;;;;;2.10;1.90;;;;;;;;;;5119295;28;20272;-62
2023/03/16 00:07:40;;;;;;;1.92;1.83;;;;;;;;;;5119925;28;20221;-62
2023/03/16 00:10:11;;;;;;;2.10;1.80;;;;;;;;;;5119865;28;20206;-63
2023/03/16 00:12:38;;;;;;;1.83;1.73;;;;;;;;;;5119184;28;20618;-63
2023/03/16 00:15:07;;;;;;;2.38;2.17;;;;;;;;;;5119188;28;20887;-63
2023/03/16 00:17:35;;;;;;;2.05;1.90;;;;;;;;;;5119437;28;20321;-63
2023/03/16 00:20:05;;;;;;;2.17;1.98;;;;;;;;;;5119685;28;20260;-63
2023/03/16 00:22:33;;;;;;;2.00;1.80;;;;;;;;;;5118552;28;20299;-63
2023/03/16 00:25:00;;;;;;;1.92;1.73;;;;;;;;;;5119390;28;20290;-63
2023/03/16 00:27:29;;;;;;;2.08;1.58;;;;;;;;;;5119266;28;20618;-63
2023/03/16 00:29:56;;;;;;;3.17;2.00;;;;;;;;;;5119506;28;20203;-63
2023/03/16 00:32:25;;;;;;;2.00;1.80;;;;;;;;;;5119219;28;20266;-63
2023/03/16 00:34:53;;;;;;;2.20;2.00;;;;;;;;;;5101920;28;20249;-63
2023/03/16 00:37:23;;;;;;;2.25;2.05;;;;;;;;;;5118961;28;20494;-63
2023/03/16 00:39:51;;;;;;;1.88;1.75;;;;;;;;;;5119326;28;20424;-63
2023/03/16 00:42:19;;;;;;;2.22;2.05;;;;;;;;;;5119550;28;20245;-63
2023/03/16 00:44:47;;;;;;;2.17;1.88;;;;;;;;;;5118855;28;20290;-63
2023/03/16 00:47:15;;;;;;;2.10;1.90;;;;;;;;;;5119211;28;20202;-63
2023/03/16 00:49:43;;;;;;;2.10;2.00;;;;;;;;;;5119293;28;20559;-63
2023/03/16 00:52:13;;;;;;;2.15;1.95;;;;;;;;;;5118813;28;20238;-63
2023/03/16 00:54:41;;;;;;;2.63;2.33;;;;;;;;;;5118929;28;20206;-63
2023/03/16 00:57:10;;;;;;;2.25;2.05;;;;;;;;;;5118886;28;20214;-63
2023/03/16 00:59:38;;;;;;;2.35;2.15;;;;;;;;;;5118883;28;20203;-63
2023/03/16 01:02:07;;;;;;;2.25;1.90;;;;;;;;;;5118761;28;20251;-63
2023/03/16 01:04:35;;;;;;;2.33;2.13;;;;;;;;;;5118621;28;20245;-63
2023/03/16 01:07:03;;;;;;;2.17;2.00;;;;;;;;;;5118660;28;20213;-63
2023/03/16 01:09:35;;;;;;;2.20;2.00;;;;;;;;;;5118290;28;20199;-63
2023/03/16 01:12:05;;;;;;;2.40;2.20;;;;;;;;;;5118737;28;20250;-63
2023/03/16 01:14:33;;;;;;;2.38;2.03;;;;;;;;;;5117935;28;20210;-63
2023/03/16 01:17:01;;;;;;;1.80;1.70;;;;;;;;;;5118538;28;20269;-63
2023/03/16 01:19:34;;;;;;;2.20;2.00;;;;;;;;;;5118024;28;20578;-63
2023/03/16 01:22:02;;;;;;;2.30;2.10;;;;;;;;;;5118160;28;20260;-63
2023/03/16 01:24:30;;;;;;;2.33;2.10;;;;;;;;;;5118158;28;20597;-63
2023/03/16 01:26:58;;;;;;;2.30;2.10;;;;;;;;;;5118431;28;20207;-63
2023/03/16 01:29:25;;;;;;;2.33;2.13;;;;;;;;;;5108281;28;20342;-63
2023/03/16 01:31:53;;;;;;;2.35;2.15;;;;;;;;;;5110524;28;20231;-63
2023/03/16 01:34:20;;;;;;;1.90;1.80;;;;;;;;;;5117764;28;20209;-63
2023/03/16 01:36:50;;;;;;;2.00;1.90;;;;;;;;;;5118327;28;20263;-63
2023/03/16 01:39:18;;;;;;;2.40;1.95;;;;;;;;;;5117591;28;20294;-63
2023/03/16 01:41:46;;;;;;;2.30;2.10;;;;;;;;;;5117860;27;20199;-62
2023/03/16 01:44:14;;;;;;;1.92;1.83;;;;;;;;;;5101462;28;20674;-62
2023/03/16 01:46:45;;;;;;;2.00;1.90;;;;;;;;;;5118129;28;20268;-62
2023/03/16 01:49:13;;;;;;;2.17;2.00;;;;;;;;;;5118064;28;20233;-62
2023/03/16 01:51:43;;;;;;;1.83;1.73;;;;;;;;;;5117790;28;20277;-62
2023/03/16 01:54:16;;;;;;;1.98;1.80;;;;;;;;;;5117907;28;20223;-62
2023/03/16 01:56:46;;;;;;;2.20;2.00;;;;;;;;;;5117220;28;20206;-62
2023/03/16 01:59:16;;;;;;;1.90;1.80;;;;;;;;;;5117990;28;20260;-62
2023/03/16 02:01:43;;;;;;;2.33;2.13;;;;;;;;;;5117809;28;20536;-62
2023/03/16 02:04:17;;;;;;;2.00;1.90;;;;;;;;;;5118007;28;20267;-62
2023/03/16 02:06:45;;;;;;;2.25;2.05;;;;;;;;;;5117760;28;20617;-63
2023/03/16 02:09:14;;;;;;;2.40;2.20;;;;;;;;;;5118050;28;20289;-63
2023/03/16 02:11:42;;;;;;;2.30;2.10;;;;;;;;;;5117595;28;20286;-63
2023/03/16 02:14:10;;;;;;;2.70;2.03;;;;;;;;;;5117952;28;20227;-63
2023/03/16 02:16:38;;;;;;;1.75;1.65;;;;;;;;;;5117477;28;20349;-63
2023/03/16 02:19:09;;;;;;;2.08;1.98;;;;;;;;;;5117670;28;20234;-63
2023/03/16 02:21:40;;;;;;;1.85;1.75;;;;;;;;;;5117358;28;20248;-63
2023/03/16 02:24:08;;;;;;;2.45;2.25;;;;;;;;;;5117834;28;20843;-62
2023/03/16 02:26:43;;;;;;;1.73;1.63;;;;;;;;;;5117908;28;20234;-62
2023/03/16 02:29:19;;;;;;;2.25;2.05;;;;;;;;;;5117511;28;20202;-62
2023/03/16 02:31:48;;;;;;;2.30;2.10;;;;;;;;;;5117279;28;20227;-62
2023/03/16 02:34:17;;;;;;;2.10;1.90;;;;;;;;;;5117121;28;20314;-62
2023/03/16 02:36:46;;;;;;;2.00;1.90;;;;;;;;;;5117182;28;20209;-62
2023/03/16 02:39:14;;;;;;;1.77;1.67;;;;;;;;;;5117169;28;20203;-62
2023/03/16 02:41:42;;;;;;;2.10;1.92;;;;;;;;;;5117139;28;20264;-62
2023/03/16 02:44:14;;;;;;;2.15;1.95;;;;;;;;;;5117058;28;20302;-63
2023/03/16 02:46:43;;;;;;;2.20;2.00;;;;;;;;;;5120277;28;20236;-63
2023/03/16 02:49:16;;;;;;;2.10;2.00;;;;;;;;;;5121285;28;20195;-62
2023/03/16 02:51:44;;;;;;;1.98;1.80;;;;;;;;;;5106173;28;20200;-63
2023/03/16 02:54:11;;;;;;;2.03;1.92;;;;;;;;;;5119644;28;20317;-63
2023/03/16 02:56:39;;;;;;;2.22;2.00;;;;;;;;;;5120697;28;20286;-63
2023/03/16 02:59:07;;;;;;;1.98;1.88;;;;;;;;;;5120750;28;21977;-63
2023/03/16 03:01:35;;;;;;;1.95;1.85;;;;;;;;;;5120727;28;20557;-63
2023/03/16 03:04:03;;;;;;;5.15;2.03;;;;;;;;;;5117847;28;20570;-63
2023/03/16 03:06:32;;;;;;;2.00;1.80;;;;;;;;;;5107774;28;20463;-63
2023/03/16 03:09:00;;;;;;;2.42;2.00;;;;;;;;;;5120579;28;20214;-63
2023/03/16 03:11:28;;;;;;;3.53;2.17;;;;;;;;;;5120595;28;20418;-63
2023/03/16 03:13:55;;;;;;;3.10;2.20;;;;;;;;;;5120406;28;20277;-63
2023/03/16 03:16:23;;;;;;;4.75;2.13;;;;;;;;;;5120183;28;20242;-63
2023/03/16 03:18:52;;;;;;;2.10;1.90;;;;;;;;;;5120513;28;20290;-63
2023/03/16 03:21:19;;;;;;;2.42;2.15;;;;;;;;;;5120169;28;20609;-63
2023/03/16 03:23:48;;;;;;;2.30;2.10;;;;;;;;;;5120405;28;20266;-63
2023/03/16 03:26:16;;;;;;;2.25;2.00;;;;;;;;;;5121080;28;20242;-63
2023/03/16 03:28:43;;;;;;;4.40;2.42;;;;;;;;;;5120638;28;20199;-63
2023/03/16 03:31:14;;;;;;;2.78;2.42;;;;;;;;;;5120071;28;20491;-62
2023/03/16 03:33:42;;;;;;;3.95;2.30;;;;;;;;;;5120703;28;20227;-62
2023/03/16 03:36:10;;;;;;;4.53;2.47;;;;;;;;;;5120402;28;20571;-62
2023/03/16 03:38:37;;;;;;;4.57;2.50;;;;;;;;;;5120217;28;20267;-62
2023/03/16 03:41:07;;;;;;;3.38;2.78;;;;;;;;;;5119527;28;20285;-62
2023/03/16 03:43:34;;;;;;;4.10;2.60;;;;;;;;;;5120113;28;20210;-62
2023/03/16 03:46:03;;;;;;;5.28;2.80;;;;;;;;;;5120212;28;20248;-62
2023/03/16 03:48:30;;;;;;;4.22;2.83;;;;;;;;;;5120279;28;20249;-62
2023/03/16 03:50:58;;;;;;;5.45;2.97;;;;;;;;;;5119362;28;20264;-62
2023/03/16 03:53:25;;;;;;;3.42;2.85;;;;;;;;;;5120106;28;20262;-62
2023/03/16 03:55:53;;;;;;;4.97;3.00;;;;;;;;;;5119564;28;20584;-62
2023/03/16 03:58:22;;;;;;;4.30;3.05;;;;;;;;;;5118857;28;20206;-62
2023/03/16 04:00:49;;;;;;;5.07;2.50;;;;;;;;;;5119748;28;20532;-62
2023/03/16 04:03:17;;;;;;;2.92;2.63;;;;;;;;;;5119926;28;20199;-62
2023/03/16 04:05:44;;;;;;;4.60;2.80;;;;;;;;;;5120062;28;20242;-62
2023/03/16 04:08:12;;;;;;;5.82;3.00;;;;;;;;;;5120044;28;20642;-62
2023/03/16 04:10:39;;;;;;;4.45;2.97;;;;;;;;;;5119482;28;20244;-62
2023/03/16 04:13:07;;;;;;;4.68;3.00;;;;;;;;;;5119473;28;20266;-62
2023/03/16 04:15:37;;;;;;;3.75;2.97;;;;;;;;;;5119635;28;20309;-62
2023/03/16 04:18:04;;;;;;;4.10;2.83;;;;;;;;;;5119528;28;20328;-62
2023/03/16 04:20:32;;;;;;;4.50;3.17;;;;;;;;;;5119735;28;20544;-62
2023/03/16 04:23:00;;;;;;;5.13;3.10;;;;;;;;;;5119389;28;20505;-61
2023/03/16 04:25:29;;;;;;;4.43;3.05;;;;;;;;;;5119618;28;20285;-61
2023/03/16 04:27:56;;;;;;;4.55;2.80;;;;;;;;;;5119498;28;20203;-62
2023/03/16 04:30:24;;;;;;;4.25;2.67;;;;;;;;;;5119201;28;20199;-62
2023/03/16 04:32:53;;;;;;;4.95;2.97;;;;;;;;;;5119003;28;20207;-62
2023/03/16 04:35:21;;;;;;;5.60;3.40;;;;;;;;;;5119290;28;20272;-62
2023/03/16 04:37:48;;;;;;;3.55;3.10;;;;;;;;;;5118729;28;20299;-62
2023/03/16 04:40:16;;;;;;;3.67;2.75;;;;;;;;;;5118460;28;20217;-62
2023/03/16 04:42:44;;;;;;;3.88;2.88;;;;;;;;;;5118816;28;20207;-62
2023/03/16 04:45:12;;;;;;;5.10;3.33;;;;;;;;;;5119144;28;20773;-62
2023/03/16 04:47:40;;;;;;;4.05;2.70;;;;;;;;;;5118545;28;20210;-62
2023/03/16 04:50:10;;;;;;;3.65;2.75;;;;;;;;;;5119081;28;20532;-62
2023/03/16 04:52:38;;;;;;;4.75;3.08;;;;;;;;;;5118752;28;20202;-62
2023/03/16 04:55:06;;;;;;;4.13;2.90;;;;;;;;;;5118409;28;20227;-62
2023/03/16 04:57:34;;;;;;;3.50;2.67;;;;;;;;;;5118178;28;20297;-62
2023/03/16 05:00:02;;;;;;;3.15;2.83;;;;;;;;;;5117634;28;20234;-62
2023/03/16 05:02:29;;;;;;;4.22;2.83;;;;;;;;;;5117809;28;20218;-62
2023/03/16 05:04:57;;;;;;;3.70;3.15;;;;;;;;;;5118002;28;20661;-62
2023/03/16 05:07:26;;;;;;;4.13;2.95;;;;;;;;;;5118192;28;20203;-62
2023/03/16 05:09:53;;;;;;;3.83;2.78;;;;;;;;;;5117629;28;20286;-62
2023/03/16 05:12:21;;;;;;;4.60;2.70;;;;;;;;;;5118266;28;20213;-62
2023/03/16 05:14:48;;;;;;;3.53;3.00;;;;;;;;;;5117771;28;20415;-62
2023/03/16 05:17:15;;;;;;;4.03;2.83;;;;;;;;;;5118039;28;20556;-62
2023/03/16 05:19:43;;;;;;;3.55;2.88;;;;;;;;;;5117763;28;20297;-62
2023/03/16 05:22:10;;;;;;;4.35;3.17;;;;;;;;;;5117574;28;20210;-62
2023/03/16 05:24:39;;;;;;;4.22;2.83;;;;;;;;;;5117935;28;20231;-62
2023/03/16 05:27:07;;;;;;;3.50;2.78;;;;;;;;;;5117242;28;20203;-62
2023/03/16 05:29:34;;;;;;;3.10;2.80;;;;;;;;;;5117039;28;20245;-62
2023/03/16 05:32:02;;;;;;;3.80;2.97;;;;;;;;;;5116008;28;20259;-62
2023/03/16 05:34:30;;;;;;;3.72;2.85;;;;;;;;;;5117358;28;20222;-62
2023/03/16 05:36:57;;;;;;;3.03;2.72;;;;;;;;;;5116778;28;20661;-62
2023/03/16 05:39:25;;;;;;;2.75;2.55;;;;;;;;;;5116371;28;20238;-62
2023/03/16 05:41:54;;;;;;;2.97;2.70;;;;;;;;;;5115634;28;20209;-62
2023/03/16 05:44:22;;;;;;;3.35;2.72;;;;;;;;;;5116810;28;20472;-62
2023/03/16 05:46:49;;;;;;;3.30;2.75;;;;;;;;;;5116417;28;20625;-62
2023/03/16 05:49:17;;;;;;;3.00;2.70;;;;;;;;;;5116308;28;20208;-62
2023/03/16 05:51:44;;;;;;;3.30;2.65;;;;;;;;;;5115987;28;20290;-61
2023/03/16 05:54:12;;;;;;;3.63;2.97;;;;;;;;;;5115824;28;20494;-61
2023/03/16 05:56:40;;;;;;;3.05;2.40;;;;;;;;;;5116483;28;20211;-62
2023/03/16 05:59:09;;;;;;;3.35;2.80;;;;;;;;;;5116032;28;20259;-61
2023/03/16 06:01:36;;;;;;;3.03;2.65;;;;;;;;;;5115263;28;20195;-61
2023/03/16 06:04:05;;;;;;;2.92;2.70;;;;;;;;;;5099233;28;20262;-61
2023/03/16 06:06:32;;;;;;;3.28;2.97;;;;;;;;;;5115681;28;20320;-61
2023/03/16 06:09:00;;;;;;;3.45;2.67;;;;;;;;;;5115863;28;20294;-61
2023/03/16 06:11:27;;;;;;;3.03;2.50;;;;;;;;;;5114623;28;20249;-61
2023/03/16 06:13:56;;;;;;;3.03;2.53;;;;;;;;;;5114538;28;20226;-61
2023/03/16 06:16:25;;;;;;;2.55;2.35;;;;;;;;;;5114818;28;20230;-62
2023/03/16 06:18:53;;;;;;;2.65;2.45;;;;;;;;;;5113889;28;20309;-62
2023/03/16 06:21:20;;;;;;;3.10;2.67;;;;;;;;;;5116078;28;20278;-61
2023/03/16 06:23:48;;;;;;;2.85;2.55;;;;;;;;;;5118722;28;20238;-61
2023/03/16 06:26:15;;;;;;;3.35;2.95;;;;;;;;;;5119159;28;20496;-62
2023/03/16 06:28:43;;;;;;;2.55;2.35;;;;;;;;;;5118368;28;20309;-61
2023/03/16 06:31:11;;;;;;;3.33;2.67;;;;;;;;;;5118103;28;20256;-61
2023/03/16 06:33:40;;;;;;;2.75;2.55;;;;;;;;;;5118458;28;20199;-61
2023/03/16 06:36:08;;;;;;;2.78;2.58;;;;;;;;;;5118868;28;20210;-61
2023/03/16 06:38:35;;;;;;;2.97;2.67;;;;;;;;;;5118242;28;20209;-61
2023/03/16 06:41:03;;;;;;;3.55;2.60;;;;;;;;;;5118266;28;20225;-61
2023/03/16 06:43:31;;;;;;;2.60;2.40;;;;;;;;;;5119191;28;20202;-61
2023/03/16 06:45:58;;;;;;;2.60;2.40;;;;;;;;;;5118852;28;20294;-61
2023/03/16 06:48:26;;;;;;;3.17;2.70;;;;;;;;;;5119370;28;20207;-62
2023/03/16 06:50:55;;;;;;;2.53;2.33;;;;;;;;;;5118848;28;20264;-61
2023/03/16 06:53:22;;;;;;;3.95;2.30;;;;;;;;;;5118830;28;20249;-61
2023/03/16 06:55:50;;;;;;;2.90;2.55;;;;;;;;;;5118606;28;20222;-61
2023/03/16 06:58:17;;;;;;;2.90;2.60;;;;;;;;;;5111140;28;20302;-61
2023/03/16 07:00:44;;;;;;;2.92;2.53;;;;;;;;;;5109515;28;20226;-61
2023/03/16 07:03:12;;;;;;;2.90;2.70;;;;;;;;;;5118145;28;20283;-61
2023/03/16 07:05:40;;;;;;;2.78;2.58;;;;;;;;;;5118293;28;20277;-61
2023/03/16 07:08:09;;;;;;;2.50;2.30;;;;;;;;;;5118650;28;20242;-61
2023/03/16 07:10:36;;;;;;;2.85;2.33;;;;;;;;;;5118518;28;20487;-61
2023/03/16 07:13:04;;;;;;;2.60;2.40;;;;;;;;;;5118727;28;20245;-61
2023/03/16 07:15:31;;;;;;;2.63;2.42;;;;;;;;;;5118829;28;20227;-62
2023/03/16 07:17:59;;;;;;;2.90;2.60;;;;;;;;;;5118533;28;20226;-63
2023/03/16 07:20:28;;;;;;;2.40;2.20;;;;;;;;;;5117826;28;20289;-63
2023/03/16 07:22:56;;;;;;;2.63;2.42;;;;;;;;;;5118943;28;20276;-62
2023/03/16 07:25:25;;;;;;;2.60;2.40;;;;;;;;;;5119164;28;20199;-61
2023/03/16 07:27:52;;;;;;;3.30;2.65;;;;;;;;;;5118401;28;20264;-61
2023/03/16 07:30:20;;;;;;;2.92;2.63;;;;;;;;;;5118782;28;20297;-61
2023/03/16 07:32:47;;;;;;;3.05;2.25;;;;;;;;;;5118185;28;20241;-61
2023/03/16 07:35:16;;;;;;;2.63;2.40;;;;;;;;;;5117831;28;20234;-61
2023/03/16 07:37:43;;;;;;;2.60;2.40;;;;;;;;;;5118817;28;20218;-61
2023/03/16 07:40:11;;;;;;;2.88;2.58;;;;;;;;;;5118205;28;20203;-61
2023/03/16 07:42:40;;;;;;;2.72;2.53;;;;;;;;;;5097624;28;20272;-61
2023/03/16 07:45:09;;;;;;;2.42;2.22;;;;;;;;;;5098502;28;20311;-61
2023/03/16 07:47:36;;;;;;;3.65;2.20;;;;;;;;;;5097395;28;20591;-61
2023/03/16 07:50:04;;;;;;;3.22;2.35;;;;;;;;;;5097520;28;20298;-61
2023/03/16 07:52:32;;;;;;;2.47;2.28;;;;;;;;;;5115763;28;20279;-61
2023/03/16 07:55:00;;;;;;;2.60;2.40;;;;;;;;;;5116631;28;20251;-61
2023/03/16 07:57:27;;;;;;;2.40;2.20;;;;;;;;;;5118333;28;20207;-61
2023/03/16 07:59:57;;;;;;;2.63;2.42;;;;;;;;;;5118273;28;20256;-61
2023/03/16 08:02:24;;;;;;;2.83;2.58;;;;;;;;;;5117947;28;20280;-61
2023/03/16 08:04:52;;;;;;;2.55;2.35;;;;;;;;;;5117630;28;20246;-61
2023/03/16 08:07:19;;;;;;;2.72;2.53;;;;;;;;;;5117793;28;20210;-61
2023/03/16 08:09:46;;;;;;;2.80;2.60;;;;;;;;;;5117688;28;20306;-61
2023/03/16 08:12:14;;;;;;;2.30;2.10;;;;;;;;;;5117947;28;20207;-61
2023/03/16 08:14:44;;;;;;;2.58;2.38;;;;;;;;;;5117371;28;20319;-61
2023/03/16 08:17:13;;;;;;;2.83;2.42;;;;;;;;;;5117848;28;20238;-61
2023/03/16 08:19:41;;;;;;;2.35;2.15;;;;;;;;;;5117146;28;20586;-61
2023/03/16 08:22:09;;;;;;;2.33;2.13;;;;;;;;;;5117718;28;20202;-61
2023/03/16 08:24:37;;;;;;;2.10;1.90;;;;;;;;;;5116664;28;20191;-61
2023/03/16 08:27:04;;;;;;;3.42;2.40;;;;;;;;;;5117370;28;20233;-61
2023/03/16 08:29:33;;;;;;;2.50;2.30;;;;;;;;;;5117221;28;20199;-61
2023/03/16 08:32:00;;;;;;;2.55;2.10;;;;;;;;;;5117502;28;20207;-61
2023/03/16 08:34:30;;;;;;;2.42;2.22;;;;;;;;;;5116364;28;20222;-61
2023/03/16 08:36:58;;;;;;;2.28;2.08;;;;;;;;;;5117173;28;20225;-61
2023/03/16 08:39:26;;;;;;;2.35;2.15;;;;;;;;;;5117284;28;20199;-62
2023/03/16 08:41:54;;;;;;;2.50;2.30;;;;;;;;;;5117136;28;20203;-62
2023/03/16 08:44:22;;;;;;;2.30;2.10;;;;;;;;;;5114947;28;20238;-62
2023/03/16 08:46:50;;;;;;;2.30;2.10;;;;;;;;;;5115712;28;20237;-62
2023/03/16 08:49:19;;;;;;;1.92;1.83;;;;;;;;;;5114872;28;20228;-62
2023/03/16 08:51:48;;;;;;;2.13;1.92;;;;;;;;;;5116689;28;20210;-62
2023/03/16 08:54:15;;;;;;;2.42;2.22;;;;;;;;;;5117044;28;20290;-62
2023/03/16 08:56:43;;;;;;;2.22;2.03;;;;;;;;;;5116109;28;20644;-62
2023/03/16 08:59:10;;;;;;;2.10;1.92;;;;;;;;;;5115196;28;20569;-62
2023/03/16 09:01:39;;;;;;;2.22;2.03;;;;;;;;;;5115121;28;20203;-62
2023/03/16 09:04:08;;;;;;;2.20;2.00;;;;;;;;;;5115930;28;20203;-62
2023/03/16 09:06:35;;;;;;;2.13;1.92;;;;;;;;;;5115955;28;20598;-62
2023/03/16 09:09:04;;;;;;;2.08;1.90;;;;;;;;;;5115895;28;20230;-62
2023/03/16 09:11:32;;;;;;;2.00;1.90;;;;;;;;;;5116302;28;20285;-62
2023/03/16 09:14:00;;;;;;;1.67;1.58;;;;;;;;;;5117474;28;20470;-62
2023/03/16 09:16:29;;;;;;;2.00;1.90;;;;;;;;;;5115790;28;20227;-62
2023/03/16 09:18:57;;;;;;;2.28;2.08;;;;;;;;;;5116232;28;20209;-62
2023/03/16 09:21:24;;;;;;;2.20;2.00;;;;;;;;;;5116576;28;20213;-62
2023/03/16 09:23:53;;;;;;;1.80;1.70;;;;;;;;;;5115930;28;20210;-62
2023/03/16 09:26:22;;;;;;;1.88;1.77;;;;;;;;;;5115390;28;20195;-62
2023/03/16 09:28:49;;;;;;;1.75;1.63;;;;;;;;;;5114830;28;20226;-62
2023/03/16 09:31:17;;;;;;;2.30;2.10;;;;;;;;;;5115301;28;20238;-62
2023/03/16 09:33:45;;;;;;;1.90;1.80;;;;;;;;;;5115855;28;20307;-62
2023/03/16 09:36:12;;;;;;;2.40;2.10;;;;;;;;;;5115079;28;20618;-62
2023/03/16 09:38:41;;;;;;;2.03;1.90;;;;;;;;;;5114667;28;20293;-62
2023/03/16 09:41:09;;;;;;;1.70;1.60;;;;;;;;;;5115761;28;20210;-62
2023/03/16 09:43:53;;;;;;;2.10;1.90;;;;;;;;;;5115191;28;20314;-62
2023/03/16 09:46:25;;;;;;;2.17;1.70;;;;;;;;;;5114241;28;20203;-62
2023/03/16 09:48:54;;;;;;;1.77;1.67;;;;;;;;;;5115036;28;20200;-62
2023/03/16 09:51:24;;;;;;;1.85;1.75;;;;;;;;;;5115079;28;20298;-62
2023/03/16 09:53:56;;;;;;;1.77;1.67;;;;;;;;;;5115193;28;20211;-62
2023/03/16 09:56:31;;;;;;;2.00;1.85;;;;;;;;;;5113958;28;20229;-62
2023/03/16 09:59:01;;;;;;;1.90;1.60;;;;;;;;;;5115405;28;20571;-62
2023/03/16 10:01:38;;;;;;;2.20;1.85;;;;;;;;;;5115290;28;20506;-62
2023/03/16 10:04:11;;;;;;;1.83;1.60;;;;;;;;;;5114037;28;20537;-62
2023/03/16 10:06:45;;;;;;;2.28;1.65;;;;;;;;;;5094362;28;20218;-62
2023/03/16 10:09:19;;;;;;;1.90;1.80;;;;;;;;;;5094824;28;20214;-62
2023/03/16 10:11:47;;;;;;;1.92;1.75;;;;;;;;;;5095284;28;20206;-62
2023/03/16 10:14:22;;;;;;;1.80;1.70;;;;;;;;;;5096145;28;20287;-62
2023/03/16 10:16:51;;;;;;;2.55;1.73;;;;;;;;;;5111445;28;20287;-62
2023/03/16 10:19:20;;;;;;;1.92;1.70;;;;;;;;;;5114858;28;20467;-62
2023/03/16 10:21:49;;;;;;;2.45;1.50;;;;;;;;;;5115480;28;20246;-62
2023/03/16 10:24:19;;;;;;;2.25;1.60;;;;;;;;;;5114522;28;20266;-62
2023/03/16 10:26:50;;;;;;;1.70;1.58;;;;;;;;;;5114376;28;20240;-62
2023/03/16 10:29:22;;;;;;;1.90;1.63;;;;;;;;;;5114590;28;20202;-62
2023/03/16 10:31:50;;;;;;;1.65;1.50;;;;;;;;;;5114131;28;20264;-62
2023/03/16 10:34:18;;;;;;;3.20;1.67;;;;;;;;;;5114109;28;20242;-62
2023/03/16 10:36:46;;;;;;;1.55;1.45;;;;;;;;;;5101218;28;20344;-62
2023/03/16 10:39:16;;;;;;;1.83;1.33;;;;;;;;;;5094295;28;20195;-62
2023/03/16 10:41:45;;;;;;;3.47;1.50;;;;;;;;;;5093750;28;20199;-62
2023/03/16 10:44:15;;;;;;;2.13;1.40;;;;;;;;;;5094313;28;20207;-62
2023/03/16 10:46:46;;;;;;;2.05;1.50;;;;;;;;;;5094223;28;20564;-62
2023/03/16 10:49:25;;;;;;;2.05;1.45;;;;;;;;;;5093639;28;20264;-62
2023/03/16 10:51:53;;;;;;;1.30;1.20;;;;;;;;;;5092852;28;20521;-62
2023/03/16 10:54:25;;;;;;;1.60;1.40;;;;;;;;;;5093943;28;20235;-62
2023/03/16 10:56:53;;;;;;;1.50;1.40;;;;;;;;;;5114626;28;20258;-62
2023/03/16 10:59:28;;;;;;;1.60;1.38;;;;;;;;;;5115144;28;20203;-62
2023/03/16 11:01:57;;;;;;;1.25;1.15;;;;;;;;;;5114970;28;20407;-62
2023/03/16 11:04:25;;;;;;;1.58;1.48;;;;;;;;;;5114817;28;20207;-62
2023/03/16 11:06:54;;;;;;;1.23;1.10;;;;;;;;;;5115935;28;20199;-62
2023/03/16 11:09:23;;;;;;;1.92;1.30;;;;;;;;;;5118849;28;20233;-62
2023/03/16 11:11:51;;;;;;;1.25;1.13;;;;;;;;;;5118497;28;20238;-62
2023/03/16 11:14:21;;;;;;;1.80;1.25;;;;;;;;;;5117748;28;20231;-62
2023/03/16 11:16:50;;;;;;;1.48;1.20;;;;;;;;;;5117504;28;20652;-62
2023/03/16 11:19:21;;;;;;;1.20;1.10;;;;;;;;;;5117885;28;20203;-62
2023/03/16 11:21:53;;;;;;;1.30;1.20;;;;;;;;;;5118715;28;20320;-62
2023/03/16 11:24:24;;;;;;;1.30;1.13;;;;;;;;;;5118132;28;20203;-62
2023/03/16 11:26:54;;;;;;;1.80;1.38;;;;;;;;;;5117348;28;20297;-62
2023/03/16 11:29:24;;;;;;;1.20;1.10;;;;;;;;;;5116469;28;20602;-62
2023/03/16 11:31:54;;;;;;;1.15;1.05;;;;;;;;;;5117563;28;20292;-62
2023/03/16 11:34:27;;;;;;;1.40;1.20;;;;;;;;;;5117258;28;20556;-62
2023/03/16 11:36:56;;;;;;;1.60;1.30;;;;;;;;;;5116897;28;20223;-62
2023/03/16 11:39:31;;;;;;;1.38;1.27;;;;;;;;;;5116964;28;20302;-62
2023/03/16 11:42:04;;;;;;;1.30;1.20;;;;;;;;;;5117136;28;20199;-62
2023/03/16 11:44:37;;;;;;;2.13;1.10;;;;;;;;;;5116308;28;20656;-62
2023/03/16 11:47:09;;;;;;;1.15;1.05;;;;;;;;;;5116345;28;20198;-62
2023/03/16 11:49:44;;;;;;;1.30;1.20;;;;;;;;;;5115958;28;20290;-62
2023/03/16 11:52:16;;;;;;;1.25;0.98;;;;;;;;;;5116460;28;20224;-62
2023/03/16 11:54:55;;;;;;;1.33;1.08;;;;;;;;;;5115545;28;20195;-62
2023/03/16 11:57:35;;;;;;;2.05;1.30;;;;;;;;;;5116262;28;20672;-62
2023/03/16 12:00:08;;;;;;;0.88;0.88;;;;;;;;;;5116046;28;20585;-62
2023/03/16 12:02:46;;;;;;;1.60;1.10;;;;;;;;;;5116621;28;20283;-62
2023/03/16 12:05:32;;;;;;;1.38;0.90;;;;;;;;;;5116192;28;20203;-61
2023/03/16 12:08:04;;;;;;;1.52;0.95;;;;;;;;;;5116275;28;20500;-61
2023/03/16 12:10:35;;;;;;;1.10;1.00;;;;;;;;;;5113400;28;20265;-61
2023/03/16 12:13:06;;;;;;;1.10;1.00;;;;;;;;;;5095701;28;20210;-61
2023/03/16 12:15:37;;;;;;;1.25;1.02;;;;;;;;;;5107368;28;20219;-61
2023/03/16 12:18:09;;;;;;;1.17;1.02;;;;;;;;;;5115453;28;20571;-61
2023/03/16 12:20:41;;;;;;;1.73;1.00;;;;;;;;;;5115159;28;20656;-61
2023/03/16 12:23:13;;;;;;;1.20;1.00;;;;;;;;;;5116760;28;20448;-61
2023/03/16 12:25:44;;;;;;;1.10;1.00;;;;;;;;;;5115641;28;20203;-61
2023/03/16 12:28:16;;;;;;;1.40;1.00;;;;;;;;;;5116037;28;20199;-61
2023/03/16 12:30:49;;;;;;;1.60;1.08;;;;;;;;;;5115411;28;20264;-61
2023/03/16 12:33:21;;;;;;;0.98;0.98;;;;;;;;;;5116161;28;20210;-61
2023/03/16 12:35:53;;;;;;;1.33;1.05;;;;;;;;;;5115012;28;20295;-61
2023/03/16 12:38:31;;;;;;;1.15;0.90;;;;;;;;;;5115307;28;20226;-61
2023/03/16 12:41:04;;;;;;;1.17;0.90;;;;;;;;;;5115617;28;20205;-61
2023/03/16 12:43:47;;;;;;;1.50;0.95;;;;;;;;;;5114681;28;20561;-63
2023/03/16 12:46:17;;;;;;;1.27;0.90;;;;;;;;;;5114334;28;20226;-61
2023/03/16 12:48:47;;;;;;;1.15;0.90;;;;;;;;;;5115503;28;20301;-61
2023/03/16 12:51:16;;;;;;;1.05;0.80;;;;;;;;;;5115330;28;20203;-61
2023/03/16 12:53:46;;;;;;;1.20;0.90;;;;;;;;;;5115586;28;20252;-63
2023/03/16 12:56:15;;;;;;;0.88;0.82;;;;;;;;;;5115123;28;20287;-62
2023/03/16 12:58:47;;;;;;;1.05;0.85;;;;;;;;;;5115879;28;20594;-62
2023/03/16 13:01:16;;;;;;;0.60;0.60;;;;;;;;;;5115483;28;20590;-63
2023/03/16 13:03:44;;;;;;;1.77;0.90;;;;;;;;;;5115766;28;20202;-62
2023/03/16 13:06:19;;;;;;;1.40;1.00;;;;;;;;;;5115878;28;20527;-61
2023/03/16 13:08:51;;;;;;;1.00;0.80;;;;;;;;;;5116115;28;20577;-62
2023/03/16 13:11:19;;;;;;;1.20;0.90;;;;;;;;;;5115062;28;20203;-62
2023/03/16 13:13:51;;;;;;;1.10;0.80;;;;;;;;;;5116227;28;20759;-63
2023/03/16 13:16:26;;;;;;;0.70;0.70;;;;;;;;;;5113704;28;20227;-63
2023/03/16 13:18:53;;;;;;;2.13;0.80;;;;;;;;;;5115244;28;20210;-61
2023/03/16 13:21:22;;;;;;;0.98;0.80;;;;;;;;;;5114267;28;20203;-61
2023/03/16 13:24:00;;;;;;;0.90;0.90;;;;;;;;;;5114325;28;20685;-61
2023/03/16 13:26:37;;;;;;;1.00;0.90;;;;;;;;;;5113329;28;20226;-61
2023/03/16 13:29:08;;;;;;;1.60;0.80;;;;;;;;;;5114283;28;20199;-61
2023/03/16 13:31:37;;;;;;;1.13;0.80;;;;;;;;;;5114251;28;20772;-61
2023/03/16 13:34:07;;;;;;;1.02;0.85;;;;;;;;;;5114153;28;20247;-61
2023/03/16 13:36:36;;;;;;;1.13;1.02;;;;;;;;;;5114071;28;20261;-61
2023/03/16 13:39:18;;;;;;;1.05;0.95;;;;;;;;;;5114712;28;20207;-62
2023/03/16 13:41:56;;;;;;;1.10;0.88;;;;;;;;;;5113773;28;20203;-61
2023/03/16 13:44:24;;;;;;;1.50;0.95;;;;;;;;;;5113902;28;20289;-61
2023/03/16 13:46:51;;;;;;;0.95;0.70;;;;;;;;;;5113099;28;20199;-63
2023/03/16 13:49:19;;;;;;;0.93;0.80;;;;;;;;;;5114707;28;20709;-61
2023/03/16 13:51:47;;;;;;;1.00;0.90;;;;;;;;;;5113890;28;20814;-61
2023/03/16 13:54:20;;;;;;;1.58;0.98;;;;;;;;;;5114507;28;20207;-61
2023/03/16 13:56:48;;;;;;;1.00;1.00;;;;;;;;;;5113928;28;20284;-61
2023/03/16 13:59:16;;;;;;;0.82;0.82;;;;;;;;;;5114202;28;20610;-61
2023/03/16 14:01:45;;;;;;;1.10;0.80;;;;;;;;;;5114236;28;20203;-61
2023/03/16 14:04:17;;;;;;;1.10;1.00;;;;;;;;;;5113938;28;20207;-61
2023/03/16 14:06:53;;;;;;;1.70;0.90;;;;;;;;;;5112522;28;20196;-61
2023/03/16 14:09:24;;;;;;;1.00;0.90;;;;;;;;;;5114106;28;20671;-61
2023/03/16 14:11:51;;;;;;;0.98;0.80;;;;;;;;;;5114195;28;20218;-61
2023/03/16 14:14:24;;;;;;;1.48;0.98;;;;;;;;;;5113653;28;20234;-61
2023/03/16 14:16:53;;;;;;;1.13;0.90;;;;;;;;;;5112055;28;20255;-61
2023/03/16 14:19:23;;;;;;;1.05;0.95;;;;;;;;;;5114757;28;20211;-61
2023/03/16 14:21:51;;;;;;;0.82;0.80;;;;;;;;;;5113871;28;20257;-61
2023/03/16 14:24:24;;;;;;;1.20;0.70;;;;;;;;;;5113574;28;20229;-61
2023/03/16 14:26:53;;;;;;;0.80;0.70;;;;;;;;;;5113208;28;20205;-61
2023/03/16 14:29:23;;;;;;;1.27;0.75;;;;;;;;;;5114957;28;20370;-61
2023/03/16 14:31:51;;;;;;;0.90;0.90;;;;;;;;;;5114505;28;20202;-61
2023/03/16 14:34:22;;;;;;;1.15;1.00;;;;;;;;;;5114389;28;20302;-61
2023/03/16 14:36:50;;;;;;;0.77;0.77;;;;;;;;;;5113988;28;20305;-61
2023/03/16 14:39:20;;;;;;;1.00;0.77;;;;;;;;;;5114422;28;20301;-61
2023/03/16 14:41:49;;;;;;;1.85;0.73;;;;;;;;;;5116117;28;20199;-61
2023/03/16 14:44:21;;;;;;;0.80;0.80;;;;;;;;;;5118328;28;20267;-61
2023/03/16 14:46:49;;;;;;;1.25;0.70;;;;;;;;;;5117974;28;20260;-61
2023/03/16 14:49:22;;;;;;;0.60;0.60;;;;;;;;;;5118093;28;20230;-61
2023/03/16 14:51:51;;;;;;;0.88;0.85;;;;;;;;;;5118208;28;20617;-61
2023/03/16 14:54:20;;;;;;;0.93;0.82;;;;;;;;;;5117787;28;20263;-61